sensor_id;sensor_type;location;lat;lon;timestamp;P1;durP1;ratioP1;P2;durP2;ratioP2
18568;SDS011;14780;48.316;-1.050;2023-03-03T00:01:15;5.40;;;3.45;;
18568;SDS011;14780;48.316;-1.050;2023-03-03T00:04:00;6.63;;;3.63;;
18568;SDS011;14780;48.316;-1.050;2023-03-03T00:06:45;7.72;;;4.45;;
18568;SDS011;14780;48.316;-1.050;2023-03-03T00:09:29;6.50;;;3.85;;
18568;SDS011;14780;48.316;-1.050;2023-03-03T00:12:28;5.45;;;3.50;;
18568;SDS011;14780;48.316;-1.050;2023-03-03T00:15:14;5.03;;;3.70;;
18568;SDS011;14780;48.316;-1.050;2023-03-03T00:18:05;6.65;;;4.05;;
18568;SDS011;14780;48.316;-1.050;2023-03-03T00:21:24;7.43;;;4.10;;
18568;SDS011;14780;48.316;-1.050;2023-03-03T00:30:28;5.85;;;3.67;;
18568;SDS011;14780;48.316;-1.050;2023-03-03T00:33:18;5.95;;;4.13;;
18568;SDS011;14780;48.316;-1.050;2023-03-03T00:36:21;4.70;;;3.22;;
18568;SDS011;14780;48.316;-1.050;2023-03-03T00:42:21;4.65;;;3.47;;
18568;SDS011;14780;48.316;-1.050;2023-03-03T00:45:50;6.45;;;4.05;;
18568;SDS011;14780;48.316;-1.050;2023-03-03T00:48:22;4.93;;;3.50;;
18568;SDS011;14780;48.316;-1.050;2023-03-03T00:54:00;5.45;;;3.67;;
18568;SDS011;14780;48.316;-1.050;2023-03-03T00:56:45;4.95;;;3.38;;
18568;SDS011;14780;48.316;-1.050;2023-03-03T00:59:30;9.05;;;3.80;;
18568;SDS011;14780;48.316;-1.050;2023-03-03T01:02:15;6.07;;;3.78;;
18568;SDS011;14780;48.316;-1.050;2023-03-03T01:05:00;4.70;;;3.40;;
18568;SDS011;14780;48.316;-1.050;2023-03-03T01:07:45;5.90;;;3.70;;
18568;SDS011;14780;48.316;-1.050;2023-03-03T01:10:31;5.72;;;3.90;;
18568;SDS011;14780;48.316;-1.050;2023-03-03T01:13:19;6.53;;;3.95;;
18568;SDS011;14780;48.316;-1.050;2023-03-03T01:16:06;5.78;;;3.65;;
18568;SDS011;14780;48.316;-1.050;2023-03-03T01:18:51;5.53;;;3.97;;
18568;SDS011;14780;48.316;-1.050;2023-03-03T01:21:36;6.72;;;4.05;;
18568;SDS011;14780;48.316;-1.050;2023-03-03T01:24:21;4.72;;;3.50;;
18568;SDS011;14780;48.316;-1.050;2023-03-03T01:27:05;5.65;;;3.85;;
18568;SDS011;14780;48.316;-1.050;2023-03-03T01:29:50;5.55;;;3.58;;
18568;SDS011;14780;48.316;-1.050;2023-03-03T01:32:35;6.18;;;3.90;;
18568;SDS011;14780;48.316;-1.050;2023-03-03T01:35:20;6.13;;;4.00;;
18568;SDS011;14780;48.316;-1.050;2023-03-03T01:38:04;6.15;;;4.00;;
18568;SDS011;14780;48.316;-1.050;2023-03-03T01:40:54;6.25;;;4.10;;
18568;SDS011;14780;48.316;-1.050;2023-03-03T01:43:44;6.07;;;3.80;;
18568;SDS011;14780;48.316;-1.050;2023-03-03T01:46:41;6.18;;;3.88;;
18568;SDS011;14780;48.316;-1.050;2023-03-03T01:52:41;7.30;;;4.05;;
18568;SDS011;14780;48.316;-1.050;2023-03-03T01:55:33;5.38;;;3.83;;
18568;SDS011;14780;48.316;-1.050;2023-03-03T01:58:24;7.20;;;4.18;;
18568;SDS011;14780;48.316;-1.050;2023-03-03T02:01:16;6.13;;;3.85;;
18568;SDS011;14780;48.316;-1.050;2023-03-03T02:04:07;7.22;;;3.92;;
18568;SDS011;14780;48.316;-1.050;2023-03-03T02:06:54;5.90;;;3.75;;
18568;SDS011;14780;48.316;-1.050;2023-03-03T02:12:50;5.63;;;3.55;;
18568;SDS011;14780;48.316;-1.050;2023-03-03T02:15:37;4.93;;;3.58;;
18568;SDS011;14780;48.316;-1.050;2023-03-03T02:18:22;5.38;;;3.83;;
18568;SDS011;14780;48.316;-1.050;2023-03-03T02:26:56;6.38;;;3.92;;
18568;SDS011;14780;48.316;-1.050;2023-03-03T02:29:40;5.25;;;3.38;;
18568;SDS011;14780;48.316;-1.050;2023-03-03T02:32:25;5.55;;;3.63;;
18568;SDS011;14780;48.316;-1.050;2023-03-03T02:41:38;5.03;;;3.50;;
18568;SDS011;14780;48.316;-1.050;2023-03-03T02:44:36;5.30;;;3.53;;
18568;SDS011;14780;48.316;-1.050;2023-03-03T02:47:21;5.53;;;3.75;;
18568;SDS011;14780;48.316;-1.050;2023-03-03T02:50:06;5.90;;;3.67;;
18568;SDS011;14780;48.316;-1.050;2023-03-03T02:52:51;5.20;;;3.50;;
18568;SDS011;14780;48.316;-1.050;2023-03-03T02:55:36;5.90;;;3.65;;
18568;SDS011;14780;48.316;-1.050;2023-03-03T02:58:21;6.97;;;3.72;;
18568;SDS011;14780;48.316;-1.050;2023-03-03T03:01:06;6.90;;;4.22;;
18568;SDS011;14780;48.316;-1.050;2023-03-03T03:03:50;7.82;;;3.90;;
18568;SDS011;14780;48.316;-1.050;2023-03-03T03:06:36;5.25;;;3.47;;
18568;SDS011;14780;48.316;-1.050;2023-03-03T03:09:21;5.45;;;4.05;;
18568;SDS011;14780;48.316;-1.050;2023-03-03T03:12:07;6.95;;;3.85;;
18568;SDS011;14780;48.316;-1.050;2023-03-03T03:14:52;4.50;;;3.30;;
18568;SDS011;14780;48.316;-1.050;2023-03-03T03:17:37;5.72;;;3.50;;
18568;SDS011;14780;48.316;-1.050;2023-03-03T03:20:22;5.63;;;3.60;;
18568;SDS011;14780;48.316;-1.050;2023-03-03T03:23:07;5.97;;;3.85;;
18568;SDS011;14780;48.316;-1.050;2023-03-03T03:25:53;4.88;;;3.40;;
18568;SDS011;14780;48.316;-1.050;2023-03-03T03:28:38;4.97;;;3.40;;
18568;SDS011;14780;48.316;-1.050;2023-03-03T03:31:23;4.95;;;3.30;;
18568;SDS011;14780;48.316;-1.050;2023-03-03T03:34:07;6.05;;;3.90;;
18568;SDS011;14780;48.316;-1.050;2023-03-03T03:36:53;6.40;;;3.67;;
18568;SDS011;14780;48.316;-1.050;2023-03-03T03:39:38;5.28;;;3.65;;
18568;SDS011;14780;48.316;-1.050;2023-03-03T03:42:23;6.68;;;4.05;;
18568;SDS011;14780;48.316;-1.050;2023-03-03T03:45:08;5.45;;;3.97;;
18568;SDS011;14780;48.316;-1.050;2023-03-03T03:47:52;4.35;;;3.30;;
18568;SDS011;14780;48.316;-1.050;2023-03-03T03:50:37;5.97;;;3.88;;
18568;SDS011;14780;48.316;-1.050;2023-03-03T03:53:22;6.28;;;3.85;;
18568;SDS011;14780;48.316;-1.050;2023-03-03T03:56:07;5.28;;;3.67;;
18568;SDS011;14780;48.316;-1.050;2023-03-03T03:58:51;4.88;;;3.63;;
18568;SDS011;14780;48.316;-1.050;2023-03-03T04:01:36;6.10;;;3.80;;
18568;SDS011;14780;48.316;-1.050;2023-03-03T04:04:21;5.10;;;3.58;;
18568;SDS011;14780;48.316;-1.050;2023-03-03T04:07:06;5.18;;;3.65;;
18568;SDS011;14780;48.316;-1.050;2023-03-03T04:09:51;5.35;;;3.60;;
18568;SDS011;14780;48.316;-1.050;2023-03-03T04:12:36;5.82;;;3.92;;
18568;SDS011;14780;48.316;-1.050;2023-03-03T04:15:21;7.70;;;4.15;;
18568;SDS011;14780;48.316;-1.050;2023-03-03T04:18:06;5.60;;;3.90;;
18568;SDS011;14780;48.316;-1.050;2023-03-03T04:20:52;5.93;;;4.07;;
18568;SDS011;14780;48.316;-1.050;2023-03-03T04:23:37;5.05;;;3.85;;
18568;SDS011;14780;48.316;-1.050;2023-03-03T04:26:22;5.22;;;3.80;;
18568;SDS011;14780;48.316;-1.050;2023-03-03T04:29:06;5.13;;;3.72;;
18568;SDS011;14780;48.316;-1.050;2023-03-03T04:31:51;6.90;;;4.05;;
18568;SDS011;14780;48.316;-1.050;2023-03-03T04:34:35;6.60;;;4.47;;
18568;SDS011;14780;48.316;-1.050;2023-03-03T04:37:20;6.20;;;4.57;;
18568;SDS011;14780;48.316;-1.050;2023-03-03T04:40:05;6.13;;;4.25;;
18568;SDS011;14780;48.316;-1.050;2023-03-03T04:42:51;6.95;;;4.40;;
18568;SDS011;14780;48.316;-1.050;2023-03-03T04:45:36;7.13;;;4.30;;
18568;SDS011;14780;48.316;-1.050;2023-03-03T04:48:20;6.68;;;4.57;;
18568;SDS011;14780;48.316;-1.050;2023-03-03T04:51:05;5.70;;;4.35;;
18568;SDS011;14780;48.316;-1.050;2023-03-03T04:53:50;6.97;;;4.38;;
18568;SDS011;14780;48.316;-1.050;2023-03-03T04:56:34;6.25;;;4.53;;
18568;SDS011;14780;48.316;-1.050;2023-03-03T04:59:19;6.78;;;4.68;;
18568;SDS011;14780;48.316;-1.050;2023-03-03T05:02:03;7.10;;;4.75;;
18568;SDS011;14780;48.316;-1.050;2023-03-03T05:04:48;7.60;;;4.95;;
18568;SDS011;14780;48.316;-1.050;2023-03-03T05:07:33;7.57;;;5.13;;
18568;SDS011;14780;48.316;-1.050;2023-03-03T05:10:18;6.88;;;5.10;;
18568;SDS011;14780;48.316;-1.050;2023-03-03T05:13:03;6.90;;;4.57;;
18568;SDS011;14780;48.316;-1.050;2023-03-03T05:15:49;6.95;;;4.65;;
18568;SDS011;14780;48.316;-1.050;2023-03-03T05:18:35;7.13;;;4.95;;
18568;SDS011;14780;48.316;-1.050;2023-03-03T05:21:20;7.63;;;5.30;;
18568;SDS011;14780;48.316;-1.050;2023-03-03T05:24:05;6.97;;;4.72;;
18568;SDS011;14780;48.316;-1.050;2023-03-03T05:26:50;7.18;;;5.53;;
18568;SDS011;14780;48.316;-1.050;2023-03-03T05:29:35;9.30;;;6.00;;
18568;SDS011;14780;48.316;-1.050;2023-03-03T05:32:19;7.03;;;5.32;;
18568;SDS011;14780;48.316;-1.050;2023-03-03T05:35:04;8.23;;;5.90;;
18568;SDS011;14780;48.316;-1.050;2023-03-03T05:37:49;7.57;;;5.43;;
18568;SDS011;14780;48.316;-1.050;2023-03-03T05:40:35;8.45;;;5.72;;
18568;SDS011;14780;48.316;-1.050;2023-03-03T05:43:20;7.88;;;6.07;;
18568;SDS011;14780;48.316;-1.050;2023-03-03T05:46:04;9.93;;;6.55;;
18568;SDS011;14780;48.316;-1.050;2023-03-03T05:48:49;9.20;;;6.40;;
18568;SDS011;14780;48.316;-1.050;2023-03-03T05:51:33;7.57;;;6.60;;
18568;SDS011;14780;48.316;-1.050;2023-03-03T05:54:18;8.88;;;6.50;;
18568;SDS011;14780;48.316;-1.050;2023-03-03T05:57:03;8.93;;;6.32;;
18568;SDS011;14780;48.316;-1.050;2023-03-03T05:59:48;11.57;;;7.05;;
18568;SDS011;14780;48.316;-1.050;2023-03-03T06:02:33;10.02;;;7.20;;
18568;SDS011;14780;48.316;-1.050;2023-03-03T06:05:18;9.98;;;7.03;;
18568;SDS011;14780;48.316;-1.050;2023-03-03T06:08:03;10.77;;;6.97;;
18568;SDS011;14780;48.316;-1.050;2023-03-03T06:10:48;8.75;;;6.85;;
18568;SDS011;14780;48.316;-1.050;2023-03-03T06:13:32;9.73;;;7.10;;
18568;SDS011;14780;48.316;-1.050;2023-03-03T06:16:17;9.30;;;7.45;;
18568;SDS011;14780;48.316;-1.050;2023-03-03T06:19:02;10.20;;;7.18;;
18568;SDS011;14780;48.316;-1.050;2023-03-03T06:21:46;7.90;;;6.15;;
18568;SDS011;14780;48.316;-1.050;2023-03-03T06:24:31;8.50;;;6.20;;
18568;SDS011;14780;48.316;-1.050;2023-03-03T06:27:15;9.52;;;6.55;;
18568;SDS011;14780;48.316;-1.050;2023-03-03T06:30:00;10.80;;;7.30;;
18568;SDS011;14780;48.316;-1.050;2023-03-03T06:32:46;11.48;;;7.75;;
18568;SDS011;14780;48.316;-1.050;2023-03-03T06:35:31;14.75;;;7.88;;
18568;SDS011;14780;48.316;-1.050;2023-03-03T06:38:15;11.65;;;7.70;;
18568;SDS011;14780;48.316;-1.050;2023-03-03T06:41:00;13.55;;;8.40;;
18568;SDS011;14780;48.316;-1.050;2023-03-03T06:43:49;13.77;;;8.20;;
18568;SDS011;14780;48.316;-1.050;2023-03-03T06:46:34;11.15;;;7.40;;
18568;SDS011;14780;48.316;-1.050;2023-03-03T06:49:18;12.77;;;7.65;;
18568;SDS011;14780;48.316;-1.050;2023-03-03T06:52:13;11.80;;;7.10;;
18568;SDS011;14780;48.316;-1.050;2023-03-03T06:55:09;10.02;;;7.32;;
18568;SDS011;14780;48.316;-1.050;2023-03-03T07:00:58;11.32;;;6.88;;
18568;SDS011;14780;48.316;-1.050;2023-03-03T07:03:43;11.02;;;7.50;;
18568;SDS011;14780;48.316;-1.050;2023-03-03T07:06:29;11.27;;;7.68;;
18568;SDS011;14780;48.316;-1.050;2023-03-03T07:09:20;10.88;;;7.53;;
18568;SDS011;14780;48.316;-1.050;2023-03-03T07:12:12;8.95;;;6.72;;
18568;SDS011;14780;48.316;-1.050;2023-03-03T07:18:00;11.55;;;7.28;;
18568;SDS011;14780;48.316;-1.050;2023-03-03T07:20:53;8.65;;;6.80;;
18568;SDS011;14780;48.316;-1.050;2023-03-03T07:23:38;12.43;;;7.95;;
18568;SDS011;14780;48.316;-1.050;2023-03-03T07:29:25;8.50;;;7.22;;
18568;SDS011;14780;48.316;-1.050;2023-03-03T07:32:20;11.73;;;7.18;;
18568;SDS011;14780;48.316;-1.050;2023-03-03T07:35:28;8.55;;;7.35;;
18568;SDS011;14780;48.316;-1.050;2023-03-03T07:41:23;10.27;;;7.03;;
18568;SDS011;14780;48.316;-1.050;2023-03-03T07:44:20;10.18;;;7.43;;
18568;SDS011;14780;48.316;-1.050;2023-03-03T07:47:21;9.20;;;7.28;;
18568;SDS011;14780;48.316;-1.050;2023-03-03T07:50:14;10.05;;;7.13;;
18568;SDS011;14780;48.316;-1.050;2023-03-03T07:53:02;11.00;;;7.43;;
18568;SDS011;14780;48.316;-1.050;2023-03-03T07:55:55;9.63;;;7.53;;
18568;SDS011;14780;48.316;-1.050;2023-03-03T07:58:40;8.35;;;6.50;;
18568;SDS011;14780;48.316;-1.050;2023-03-03T08:01:36;9.70;;;7.43;;
18568;SDS011;14780;48.316;-1.050;2023-03-03T08:07:18;11.25;;;6.95;;
18568;SDS011;14780;48.316;-1.050;2023-03-03T08:10:07;8.95;;;7.00;;
18568;SDS011;14780;48.316;-1.050;2023-03-03T08:19:19;16.85;;;11.77;;
18568;SDS011;14780;48.316;-1.050;2023-03-03T08:22:11;17.58;;;12.35;;
18568;SDS011;14780;48.316;-1.050;2023-03-03T08:25:00;18.85;;;11.85;;
18568;SDS011;14780;48.316;-1.050;2023-03-03T08:27:45;15.95;;;11.13;;
18568;SDS011;14780;48.316;-1.050;2023-03-03T08:30:29;17.98;;;11.00;;
18568;SDS011;14780;48.316;-1.050;2023-03-03T08:33:15;16.17;;;10.75;;
18568;SDS011;14780;48.316;-1.050;2023-03-03T08:36:00;13.88;;;10.18;;
18568;SDS011;14780;48.316;-1.050;2023-03-03T08:38:45;14.45;;;9.65;;
18568;SDS011;14780;48.316;-1.050;2023-03-03T08:41:30;15.40;;;9.65;;
18568;SDS011;14780;48.316;-1.050;2023-03-03T08:44:15;13.23;;;9.60;;
18568;SDS011;14780;48.316;-1.050;2023-03-03T08:47:00;14.90;;;8.93;;
18568;SDS011;14780;48.316;-1.050;2023-03-03T08:49:45;13.48;;;8.68;;
18568;SDS011;14780;48.316;-1.050;2023-03-03T08:52:29;10.77;;;8.10;;
18568;SDS011;14780;48.316;-1.050;2023-03-03T08:55:14;12.38;;;8.13;;
18568;SDS011;14780;48.316;-1.050;2023-03-03T08:57:59;10.90;;;7.63;;
18568;SDS011;14780;48.316;-1.050;2023-03-03T09:00:44;9.38;;;7.20;;
18568;SDS011;14780;48.316;-1.050;2023-03-03T09:03:29;12.02;;;8.15;;
18568;SDS011;14780;48.316;-1.050;2023-03-03T09:06:14;10.60;;;7.00;;
18568;SDS011;14780;48.316;-1.050;2023-03-03T09:08:59;10.45;;;7.05;;
18568;SDS011;14780;48.316;-1.050;2023-03-03T09:11:44;9.25;;;6.60;;
18568;SDS011;14780;48.316;-1.050;2023-03-03T09:14:30;9.85;;;6.57;;
18568;SDS011;14780;48.316;-1.050;2023-03-03T09:17:22;9.05;;;6.78;;
18568;SDS011;14780;48.316;-1.050;2023-03-03T09:23:20;9.02;;;6.25;;
18568;SDS011;14780;48.316;-1.050;2023-03-03T09:31:58;7.25;;;5.40;;
18568;SDS011;14780;48.316;-1.050;2023-03-03T09:34:44;8.48;;;5.68;;
18568;SDS011;14780;48.316;-1.050;2023-03-03T09:37:35;8.98;;;5.10;;
18568;SDS011;14780;48.316;-1.050;2023-03-03T09:43:36;7.40;;;5.78;;
18568;SDS011;14780;48.316;-1.050;2023-03-03T10:13:51;6.68;;;4.68;;
18568;SDS011;14780;48.316;-1.050;2023-03-03T10:23:14;8.57;;;4.55;;
18568;SDS011;14780;48.316;-1.050;2023-03-03T10:32:59;6.97;;;4.00;;
18568;SDS011;14780;48.316;-1.050;2023-03-03T10:36:16;6.22;;;4.22;;
18568;SDS011;14780;48.316;-1.050;2023-03-03T10:45:05;7.20;;;4.25;;
18568;SDS011;14780;48.316;-1.050;2023-03-03T10:48:18;5.40;;;4.00;;
18568;SDS011;14780;48.316;-1.050;2023-03-03T11:00:39;11.75;;;4.45;;
18568;SDS011;14780;48.316;-1.050;2023-03-03T11:09:43;5.32;;;3.55;;
18568;SDS011;14780;48.316;-1.050;2023-03-03T11:37:45;6.65;;;3.65;;
18568;SDS011;14780;48.316;-1.050;2023-03-03T11:44:44;6.68;;;3.63;;
18568;SDS011;14780;48.316;-1.050;2023-03-03T11:47:19;5.57;;;4.07;;
18568;SDS011;14780;48.316;-1.050;2023-03-03T11:50:38;6.65;;;3.80;;
18568;SDS011;14780;48.316;-1.050;2023-03-03T11:56:40;6.57;;;3.70;;
18568;SDS011;14780;48.316;-1.050;2023-03-03T12:02:38;5.47;;;3.80;;
18568;SDS011;14780;48.316;-1.050;2023-03-03T12:05:41;5.03;;;3.50;;
18568;SDS011;14780;48.316;-1.050;2023-03-03T12:17:43;6.05;;;3.80;;
18568;SDS011;14780;48.316;-1.050;2023-03-03T12:33:00;7.80;;;3.40;;
18568;SDS011;14780;48.316;-1.050;2023-03-03T12:46:06;4.90;;;3.50;;
18568;SDS011;14780;48.316;-1.050;2023-03-03T12:48:58;8.18;;;3.45;;
18568;SDS011;14780;48.316;-1.050;2023-03-03T12:54:57;4.45;;;3.00;;
18568;SDS011;14780;48.316;-1.050;2023-03-03T13:07:09;4.40;;;3.08;;
18568;SDS011;14780;48.316;-1.050;2023-03-03T13:10:13;4.28;;;2.95;;
18568;SDS011;14780;48.316;-1.050;2023-03-03T13:19:17;4.10;;;2.80;;
18568;SDS011;14780;48.316;-1.050;2023-03-03T13:25:46;5.95;;;3.28;;
18568;SDS011;14780;48.316;-1.050;2023-03-03T13:28:32;5.97;;;3.05;;
18568;SDS011;14780;48.316;-1.050;2023-03-03T13:31:28;5.32;;;3.33;;
18568;SDS011;14780;48.316;-1.050;2023-03-03T13:43:35;4.13;;;2.90;;
18568;SDS011;14780;48.316;-1.050;2023-03-03T14:04:47;4.22;;;3.08;;
18568;SDS011;14780;48.316;-1.050;2023-03-03T14:07:38;5.85;;;2.92;;
18568;SDS011;14780;48.316;-1.050;2023-03-03T14:10:39;4.82;;;2.97;;
18568;SDS011;14780;48.316;-1.050;2023-03-03T14:19:41;4.63;;;3.00;;
18568;SDS011;14780;48.316;-1.050;2023-03-03T14:22:39;5.97;;;2.95;;
18568;SDS011;14780;48.316;-1.050;2023-03-03T14:28:47;4.20;;;2.42;;
18568;SDS011;14780;48.316;-1.050;2023-03-03T14:31:39;3.28;;;2.20;;
18568;SDS011;14780;48.316;-1.050;2023-03-03T14:34:29;5.55;;;2.90;;
18568;SDS011;14780;48.316;-1.050;2023-03-03T14:40:16;4.18;;;2.60;;
18568;SDS011;14780;48.316;-1.050;2023-03-03T14:49:14;3.88;;;2.70;;
18568;SDS011;14780;48.316;-1.050;2023-03-03T14:52:22;3.90;;;2.60;;
18568;SDS011;14780;48.316;-1.050;2023-03-03T14:55:29;3.50;;;2.55;;
18568;SDS011;14780;48.316;-1.050;2023-03-03T14:58:27;4.20;;;2.60;;
18568;SDS011;14780;48.316;-1.050;2023-03-03T15:01:35;4.00;;;2.80;;
18568;SDS011;14780;48.316;-1.050;2023-03-03T15:04:24;4.90;;;2.72;;
18568;SDS011;14780;48.316;-1.050;2023-03-03T15:13:32;3.00;;;2.25;;
18568;SDS011;14780;48.316;-1.050;2023-03-03T15:16:18;3.28;;;2.35;;
18568;SDS011;14780;48.316;-1.050;2023-03-03T15:19:11;3.20;;;2.40;;
18568;SDS011;14780;48.316;-1.050;2023-03-03T15:34:59;4.53;;;2.55;;
18568;SDS011;14780;48.316;-1.050;2023-03-03T15:50:42;5.65;;;3.17;;
18568;SDS011;14780;48.316;-1.050;2023-03-03T16:03:16;8.20;;;3.47;;
18568;SDS011;14780;48.316;-1.050;2023-03-03T16:17:58;7.80;;;3.08;;
18568;SDS011;14780;48.316;-1.050;2023-03-03T16:21:20;5.95;;;3.10;;
18568;SDS011;14780;48.316;-1.050;2023-03-03T16:27:19;8.82;;;2.72;;
18568;SDS011;14780;48.316;-1.050;2023-03-03T16:33:10;6.93;;;3.17;;
18568;SDS011;14780;48.316;-1.050;2023-03-03T16:36:07;6.80;;;2.53;;
18568;SDS011;14780;48.316;-1.050;2023-03-03T16:39:07;4.60;;;2.35;;
18568;SDS011;14780;48.316;-1.050;2023-03-03T16:42:12;3.65;;;2.50;;
18568;SDS011;14780;48.316;-1.050;2023-03-03T16:48:19;6.00;;;2.90;;
18568;SDS011;14780;48.316;-1.050;2023-03-03T16:51:22;5.10;;;2.53;;
18568;SDS011;14780;48.316;-1.050;2023-03-03T16:57:36;4.07;;;2.35;;
18568;SDS011;14780;48.316;-1.050;2023-03-03T17:00:26;10.27;;;4.40;;
18568;SDS011;14780;48.316;-1.050;2023-03-03T17:03:44;8.95;;;3.80;;
18568;SDS011;14780;48.316;-1.050;2023-03-03T17:06:54;24.02;;;10.00;;
18568;SDS011;14780;48.316;-1.050;2023-03-03T17:22:03;93.47;;;54.22;;
18568;SDS011;14780;48.316;-1.050;2023-03-03T17:31:06;103.15;;;55.42;;
18568;SDS011;14780;48.316;-1.050;2023-03-03T17:37:19;78.05;;;41.35;;
18568;SDS011;14780;48.316;-1.050;2023-03-03T17:40:16;71.82;;;39.95;;
18568;SDS011;14780;48.316;-1.050;2023-03-03T17:46:09;73.78;;;39.22;;
18568;SDS011;14780;48.316;-1.050;2023-03-03T17:49:06;70.55;;;34.88;;
18568;SDS011;14780;48.316;-1.050;2023-03-03T17:58:01;54.45;;;29.23;;
18568;SDS011;14780;48.316;-1.050;2023-03-03T18:22:33;40.10;;;19.35;;
18568;SDS011;14780;48.316;-1.050;2023-03-03T18:31:43;30.80;;;16.67;;
18568;SDS011;14780;48.316;-1.050;2023-03-03T18:34:36;26.27;;;14.15;;
18568;SDS011;14780;48.316;-1.050;2023-03-03T18:40:18;25.10;;;14.52;;
18568;SDS011;14780;48.316;-1.050;2023-03-03T18:49:11;20.60;;;12.18;;
18568;SDS011;14780;48.316;-1.050;2023-03-03T18:53:15;20.75;;;11.52;;
18568;SDS011;14780;48.316;-1.050;2023-03-03T18:57:59;15.10;;;9.50;;
18568;SDS011;14780;48.316;-1.050;2023-03-03T19:04:13;16.25;;;9.25;;
18568;SDS011;14780;48.316;-1.050;2023-03-03T19:07:14;15.98;;;8.85;;
18568;SDS011;14780;48.316;-1.050;2023-03-03T19:13:07;13.98;;;7.97;;
18568;SDS011;14780;48.316;-1.050;2023-03-03T19:19:07;13.60;;;7.97;;
18568;SDS011;14780;48.316;-1.050;2023-03-03T19:30:59;13.10;;;6.68;;
18568;SDS011;14780;48.316;-1.050;2023-03-03T19:37:38;16.83;;;6.18;;
18568;SDS011;14780;48.316;-1.050;2023-03-03T19:41:37;9.30;;;5.50;;
18568;SDS011;14780;48.316;-1.050;2023-03-03T19:44:16;9.38;;;5.65;;
18568;SDS011;14780;48.316;-1.050;2023-03-03T19:47:50;8.18;;;4.82;;
18568;SDS011;14780;48.316;-1.050;2023-03-03T20:00:42;8.52;;;4.55;;
18568;SDS011;14780;48.316;-1.050;2023-03-03T20:13:23;9.95;;;4.20;;
18568;SDS011;14780;48.316;-1.050;2023-03-03T20:26:20;7.63;;;3.45;;
18568;SDS011;14780;48.316;-1.050;2023-03-03T20:56:32;6.65;;;3.20;;
18568;SDS011;14780;48.316;-1.050;2023-03-03T21:02:29;6.82;;;3.13;;
18568;SDS011;14780;48.316;-1.050;2023-03-03T21:05:18;5.35;;;2.95;;
18568;SDS011;14780;48.316;-1.050;2023-03-03T21:08:05;5.97;;;2.78;;
18568;SDS011;14780;48.316;-1.050;2023-03-03T21:10:56;5.50;;;3.28;;
18568;SDS011;14780;48.316;-1.050;2023-03-03T21:13:48;5.47;;;2.90;;
18568;SDS011;14780;48.316;-1.050;2023-03-03T21:16:36;4.97;;;2.70;;
18568;SDS011;14780;48.316;-1.050;2023-03-03T21:19:26;3.75;;;2.30;;
18568;SDS011;14780;48.316;-1.050;2023-03-03T21:22:12;5.38;;;2.40;;
18568;SDS011;14780;48.316;-1.050;2023-03-03T21:24:57;6.25;;;3.00;;
18568;SDS011;14780;48.316;-1.050;2023-03-03T21:27:42;4.88;;;2.55;;
18568;SDS011;14780;48.316;-1.050;2023-03-03T21:30:27;7.47;;;2.60;;
18568;SDS011;14780;48.316;-1.050;2023-03-03T21:33:36;3.90;;;2.50;;
18568;SDS011;14780;48.316;-1.050;2023-03-03T21:42:08;3.30;;;2.17;;
18568;SDS011;14780;48.316;-1.050;2023-03-03T21:45:08;2.95;;;1.90;;
18568;SDS011;14780;48.316;-1.050;2023-03-03T21:47:54;3.53;;;2.33;;
18568;SDS011;14780;48.316;-1.050;2023-03-03T21:50:41;3.47;;;2.05;;
18568;SDS011;14780;48.316;-1.050;2023-03-03T21:53:29;4.03;;;2.40;;
18568;SDS011;14780;48.316;-1.050;2023-03-03T21:56:14;3.22;;;2.05;;
18568;SDS011;14780;48.316;-1.050;2023-03-03T21:58:58;3.05;;;2.22;;
18568;SDS011;14780;48.316;-1.050;2023-03-03T22:01:43;3.30;;;2.08;;
18568;SDS011;14780;48.316;-1.050;2023-03-03T22:04:28;3.95;;;2.20;;
18568;SDS011;14780;48.316;-1.050;2023-03-03T22:07:13;2.83;;;1.83;;
18568;SDS011;14780;48.316;-1.050;2023-03-03T22:09:57;2.63;;;1.90;;
18568;SDS011;14780;48.316;-1.050;2023-03-03T22:12:42;3.95;;;2.20;;
18568;SDS011;14780;48.316;-1.050;2023-03-03T22:15:27;3.25;;;2.17;;
18568;SDS011;14780;48.316;-1.050;2023-03-03T22:18:15;3.65;;;2.20;;
18568;SDS011;14780;48.316;-1.050;2023-03-03T22:21:01;2.83;;;1.90;;
18568;SDS011;14780;48.316;-1.050;2023-03-03T22:23:46;2.90;;;1.77;;
18568;SDS011;14780;48.316;-1.050;2023-03-03T22:26:31;3.95;;;2.13;;
18568;SDS011;14780;48.316;-1.050;2023-03-03T22:29:16;5.95;;;2.20;;
18568;SDS011;14780;48.316;-1.050;2023-03-03T22:32:05;3.42;;;2.08;;
18568;SDS011;14780;48.316;-1.050;2023-03-03T22:34:49;4.75;;;2.10;;
18568;SDS011;14780;48.316;-1.050;2023-03-03T22:37:35;3.88;;;1.80;;
18568;SDS011;14780;48.316;-1.050;2023-03-03T22:40:19;3.38;;;2.03;;
18568;SDS011;14780;48.316;-1.050;2023-03-03T22:43:04;4.93;;;2.38;;
18568;SDS011;14780;48.316;-1.050;2023-03-03T22:45:53;4.28;;;2.20;;
18568;SDS011;14780;48.316;-1.050;2023-03-03T22:48:41;6.47;;;2.17;;
18568;SDS011;14780;48.316;-1.050;2023-03-03T22:51:26;3.33;;;2.10;;
18568;SDS011;14780;48.316;-1.050;2023-03-03T22:54:11;3.92;;;1.80;;
18568;SDS011;14780;48.316;-1.050;2023-03-03T22:56:56;3.28;;;2.20;;
18568;SDS011;14780;48.316;-1.050;2023-03-03T22:59:40;2.85;;;1.95;;
18568;SDS011;14780;48.316;-1.050;2023-03-03T23:02:25;3.42;;;2.10;;
18568;SDS011;14780;48.316;-1.050;2023-03-03T23:05:09;2.83;;;1.77;;
18568;SDS011;14780;48.316;-1.050;2023-03-03T23:07:54;8.05;;;2.15;;
18568;SDS011;14780;48.316;-1.050;2023-03-03T23:10:39;3.35;;;2.20;;
18568;SDS011;14780;48.316;-1.050;2023-03-03T23:13:24;3.08;;;1.85;;
18568;SDS011;14780;48.316;-1.050;2023-03-03T23:16:09;3.00;;;1.70;;
18568;SDS011;14780;48.316;-1.050;2023-03-03T23:18:54;4.47;;;2.00;;
18568;SDS011;14780;48.316;-1.050;2023-03-03T23:21:39;3.72;;;1.83;;
18568;SDS011;14780;48.316;-1.050;2023-03-03T23:24:23;5.80;;;2.00;;
18568;SDS011;14780;48.316;-1.050;2023-03-03T23:27:08;4.32;;;1.70;;
18568;SDS011;14780;48.316;-1.050;2023-03-03T23:29:54;4.22;;;2.00;;
18568;SDS011;14780;48.316;-1.050;2023-03-03T23:32:39;5.40;;;2.05;;
18568;SDS011;14780;48.316;-1.050;2023-03-03T23:35:24;3.63;;;1.95;;
18568;SDS011;14780;48.316;-1.050;2023-03-03T23:38:09;3.53;;;1.80;;
18568;SDS011;14780;48.316;-1.050;2023-03-03T23:40:57;3.10;;;1.75;;
18568;SDS011;14780;48.316;-1.050;2023-03-03T23:43:42;2.33;;;1.75;;
18568;SDS011;14780;48.316;-1.050;2023-03-03T23:46:26;3.15;;;1.80;;
18568;SDS011;14780;48.316;-1.050;2023-03-03T23:49:11;2.13;;;1.90;;
18568;SDS011;14780;48.316;-1.050;2023-03-03T23:51:56;3.40;;;1.85;;
18568;SDS011;14780;48.316;-1.050;2023-03-03T23:54:40;2.78;;;1.88;;
18568;SDS011;14780;48.316;-1.050;2023-03-03T23:57:25;2.10;;;1.55;;
